Time;durP1;ratioP1;P1;durP2;ratioP2;P2;SDS_P1;SDS_P2;PMS_P1;PMS_P2;Temp;Humidity;BMP_temperature;BMP_pressure;BME280_temperature;BME280_humidity;BME280_pressure;Samples;Min_cycle;Max_cycle;Signal;HPM_P1;HPM_P2
2021/08/31 00:32:46;;;;;;;11.13;7.15;;;16.30;99.90;;;11.98;99.23;101850.97;2569962;30;137999;-39
2021/08/31 00:35:13;;;;;;;11.52;7.10;;;13.60;99.90;;;11.96;99.62;101851.16;2568004;30;138328;-38
2021/08/31 00:37:41;;;;;;;11.15;7.63;;;13.50;99.90;;;11.89;99.61;101851.09;2570430;30;136681;-38
2021/08/31 00:40:09;;;;;;;;;;;13.50;99.90;;;11.88;99.89;101854.03;2569790;30;138317;-39
2021/08/31 00:42:37;;;;;;;10.98;7.38;;;13.40;99.90;;;11.83;99.91;101851.03;2569655;30;137929;-39
2021/08/31 00:45:05;;;;;;;12.57;8.20;;;13.40;99.90;;;11.80;100.00;101853.13;2567817;30;138999;-38
2021/08/31 00:47:32;;;;;;;12.25;8.00;;;13.40;99.90;;;11.80;100.00;101855.88;2569001;30;137435;-38
2021/08/31 00:50:00;;;;;;;14.57;9.13;;;13.30;99.90;;;11.80;100.00;101860.47;2568794;30;138276;-39
2021/08/31 00:52:28;;;;;;;13.88;8.75;;;13.30;99.90;;;11.81;100.00;101851.22;2569397;30;137097;-39
2021/08/31 00:54:55;;;;;;;14.25;9.15;;;13.30;99.90;;;11.83;100.00;101860.06;2570242;30;138158;-39
2021/08/31 00:57:24;;;;;;;14.20;9.30;;;13.30;99.90;;;11.83;100.00;101857.34;2568867;30;137288;-39
2021/08/31 00:59:51;;;;;;;;;;;13.30;99.90;;;11.83;100.00;101864.72;2567827;30;138301;-40
2021/08/31 01:02:18;;;;;;;16.70;9.73;;;13.40;99.90;;;11.90;100.00;101863.72;2567855;30;137401;-39
2021/08/31 01:04:46;;;;;;;15.35;9.77;;;13.40;99.90;;;11.89;100.00;101866.66;2568102;30;138277;-39
2021/08/31 01:07:13;;;;;;;13.98;8.93;;;13.40;99.90;;;11.83;100.00;101861.97;2565401;30;137241;-39
2021/08/31 01:09:43;;;;;;;17.52;11.75;;;13.40;99.90;;;11.84;100.00;101869.13;2570883;30;139192;-39
2021/08/31 01:12:12;;;;;;;18.27;11.13;;;13.40;99.90;;;11.83;100.00;101868.28;2567035;30;137851;-39
2021/08/31 01:14:41;;;;;;;15.50;9.90;;;13.40;99.90;;;11.84;100.00;101883.63;2566718;30;138362;-39
2021/08/31 01:17:08;;;;;;;19.77;10.55;;;13.30;99.90;;;11.79;100.00;101877.91;2569270;30;138337;-39
2021/08/31 01:19:36;;;;;;;18.33;11.70;;;13.30;99.90;;;11.75;100.00;101876.63;2569085;30;138273;-38
2021/08/31 01:22:08;;;;;;;17.42;11.25;;;13.30;99.90;;;11.73;100.00;101874.06;2569702;30;138316;-39
2021/08/31 01:24:42;;;;;;;17.42;11.18;;;13.20;99.90;;;11.73;100.00;101881.44;2568317;30;138314;-38
2021/08/31 01:27:10;;;;;;;16.02;10.43;;;13.30;99.90;;;11.70;100.00;101879.09;2571632;30;137483;-38
2021/08/31 01:29:39;;;;;;;18.75;11.27;;;13.20;99.90;;;11.79;100.00;101878.75;2569036;30;139329;-39
2021/08/31 01:32:07;;;;;;;17.58;10.65;;;13.30;99.90;;;11.75;100.00;101882.91;2570322;30;137623;-39
2021/08/31 01:34:34;;;;;;;16.13;9.70;;;13.20;99.90;;;11.74;100.00;101878.50;2567984;30;139151;-38
2021/08/31 01:37:03;;;;;;;18.88;11.02;;;13.20;99.90;;;11.70;100.00;101874.47;2568336;30;137522;-39
2021/08/31 01:39:30;;;;;;;18.90;10.88;;;13.20;99.90;;;11.72;100.00;101879.75;2570353;30;138318;-39
2021/08/31 01:41:58;;;;;;;19.52;11.32;;;13.20;99.90;;;11.71;100.00;101884.34;2569668;30;138429;-38
2021/08/31 01:44:25;;;;;;;19.33;12.35;;;13.20;99.90;;;11.76;100.00;101878.31;2569427;30;138490;-39
2021/08/31 01:46:52;;;;;;;19.05;11.85;;;13.20;99.90;;;11.78;100.00;101879.78;2570217;30;137463;-39
2021/08/31 01:49:20;;;;;;;19.40;12.35;;;13.30;99.90;;;11.76;100.00;101886.50;2567822;30;138331;-39
2021/08/31 01:51:48;;;;;;;18.65;11.60;;;13.30;99.90;;;11.73;100.00;101884.16;2566569;30;137566;-39
2021/08/31 01:54:16;;;;;;;;;;;13.20;99.90;;;11.68;100.00;101892.13;2568880;30;139154;-38
2021/08/31 01:56:43;;;;;;;19.48;10.93;;;13.20;99.90;;;11.63;100.00;101889.94;2569541;30;137941;-39
2021/08/31 01:59:11;;;;;;;19.95;11.98;;;13.20;99.90;;;11.61;100.00;101890.13;2568354;30;138572;-38
2021/08/31 02:01:39;;;;;;;18.33;11.73;;;13.20;99.90;;;11.68;100.00;101886.66;2569190;30;136813;-39
2021/08/31 02:04:07;;;;;;;21.52;12.55;;;13.20;99.90;;;11.68;100.00;101892.13;2570102;30;138416;-38
2021/08/31 02:06:35;;;;;;;18.85;12.30;;;13.20;99.90;;;11.71;100.00;101891.72;2568064;30;137260;-39
2021/08/31 02:09:03;;;;;;;20.15;12.68;;;13.20;99.90;;;11.69;100.00;101897.38;2569795;30;137153;-39
2021/08/31 02:11:30;;;;;;;19.98;11.98;;;13.20;99.90;;;11.72;100.00;101894.25;2569820;30;137772;-38
2021/08/31 02:13:58;;;;;;;20.77;13.57;;;13.20;99.90;;;11.83;100.00;101901.09;2567679;30;137502;-38
2021/08/31 02:16:25;;;;;;;23.63;14.00;;;13.30;99.90;;;11.88;100.00;101904.06;2568232;30;137799;-39
2021/08/31 02:18:53;;;;;;;20.85;13.80;;;13.30;99.90;;;11.92;100.00;101899.06;2569331;30;138369;-39
2021/08/31 02:21:20;;;;;;;21.67;13.80;;;13.40;99.90;;;11.92;100.00;101905.38;2569588;30;137750;-39
2021/08/31 02:23:48;;;;;;;;;;;13.40;99.90;;;11.97;100.00;101907.53;2567929;30;138950;-39
2021/08/31 02:26:15;;;;;;;17.70;12.10;;;13.40;99.90;;;11.92;100.00;101899.91;2567943;30;137276;-39
2021/08/31 02:28:43;;;;;;;22.13;13.52;;;13.40;99.90;;;11.97;100.00;101909.44;2568421;30;137330;-40
2021/08/31 02:31:10;;;;;;;21.13;13.63;;;13.40;99.90;;;11.93;100.00;101906.25;2568449;30;136950;-39
2021/08/31 02:33:38;;;;;;;18.50;11.82;;;13.40;99.90;;;11.91;100.00;101902.84;2567766;30;138361;-39
2021/08/31 02:36:05;;;;;;;26.98;15.10;;;13.40;99.90;;;11.95;100.00;101898.69;2568185;30;137746;-39
2021/08/31 02:38:33;;;;;;;26.20;15.70;;;13.40;99.90;;;12.00;100.00;101900.84;2569384;30;138201;-38
2021/08/31 02:41:00;;;;;;;24.90;14.70;;;13.50;99.90;;;12.04;100.00;101899.44;2570059;30;137462;-38
2021/08/31 02:43:28;;;;;;;22.27;14.52;;;13.50;99.90;;;12.04;100.00;101903.00;2566815;30;137283;-39
2021/08/31 02:45:56;;;;;;;24.08;14.23;;;13.50;99.90;;;11.94;100.00;101873.25;2569574;30;137625;-39
2021/08/31 02:48:23;;;;;;;21.60;13.93;;;13.60;99.90;;;12.10;100.00;101895.06;2566886;30;137586;-38
2021/08/31 02:50:52;;;;;;;22.30;13.80;;;13.50;99.90;;;12.12;100.00;101898.47;2569060;30;137184;-39
2021/08/31 02:53:20;;;;;;;24.33;15.07;;;13.50;99.90;;;12.14;100.00;101902.66;2568988;30;139016;-38
2021/08/31 02:55:47;;;;;;;25.42;15.27;;;13.60;99.90;;;12.14;100.00;101899.94;2568685;30;137505;-39
2021/08/31 02:58:15;;;;;;;20.83;14.57;;;13.60;99.90;;;12.13;100.00;101897.41;2568332;30;138541;-38
2021/08/31 03:00:52;;;;;;;22.67;14.10;;;13.60;99.90;;;12.11;100.00;101899.50;2571019;30;138185;-38
2021/08/31 03:03:20;;;;;;;21.65;13.30;;;13.60;99.90;;;12.08;100.00;101887.06;2570915;30;138856;-39
2021/08/31 03:05:48;;;;;;;21.05;12.77;;;13.50;99.90;;;12.06;100.00;101897.34;2568731;30;138138;-39
2021/08/31 03:08:15;;;;;;;20.85;13.93;;;13.50;99.90;;;12.00;100.00;101900.84;2568523;30;137299;-38
2021/08/31 03:10:43;;;;;;;22.98;14.43;;;13.50;99.90;;;11.98;100.00;101902.94;2569892;30;137061;-39
2021/08/31 03:13:10;;;;;;;22.60;14.45;;;13.50;99.90;;;11.97;100.00;101896.59;2568955;30;137646;-38
2021/08/31 03:15:39;;;;;;;25.20;14.40;;;13.50;99.90;;;11.97;100.00;101895.75;2568897;30;138096;-39
2021/08/31 03:18:07;;;;;;;23.90;14.35;;;13.40;99.90;;;11.92;100.00;101896.34;2569515;30;138519;-39
2021/08/31 03:20:35;;;;;;;21.83;14.70;;;13.40;99.90;;;11.88;100.00;101898.59;2569483;30;138104;-39
2021/08/31 03:23:02;;;;;;;25.50;15.23;;;13.40;99.90;;;11.86;100.00;101897.97;2570144;30;139361;-38
2021/08/31 03:25:30;;;;;;;22.48;13.85;;;13.40;99.90;;;11.82;100.00;101893.09;2569383;30;136930;-39
2021/08/31 03:27:57;;;;;;;23.20;15.15;;;13.30;99.90;;;11.78;100.00;101898.09;2570330;30;137390;-38
2021/08/31 03:30:25;;;;;;;23.00;14.52;;;13.30;99.90;;;11.74;100.00;101891.31;2570126;30;136976;-38
2021/08/31 03:32:52;;;;;;;24.65;15.55;;;13.30;99.90;;;11.77;100.00;101904.59;2568327;30;137338;-39
2021/08/31 03:35:21;;;;;;;24.17;15.52;;;13.20;99.90;;;11.79;100.00;101906.09;2570011;30;137038;-38
2021/08/31 03:37:48;;;;;;;27.98;16.20;;;13.30;99.90;;;11.83;100.00;101903.00;2570104;30;138161;-39
2021/08/31 03:40:16;;;;;;;25.15;16.55;;;13.30;99.90;;;11.86;100.00;101906.16;2570574;30;137412;-38
2021/08/31 03:42:46;;;;;;;23.40;15.52;;;13.30;99.90;;;11.82;100.00;101902.13;2571037;30;138157;-38
2021/08/31 03:45:15;;;;;;;26.17;16.10;;;13.30;99.90;;;11.83;100.00;101912.03;2570814;30;138979;-39
2021/08/31 03:47:43;;;;;;;32.08;18.50;;;13.30;99.90;;;11.86;100.00;101917.09;2569067;30;139221;-39
2021/08/31 03:50:11;;;;;;;;;;;13.30;99.90;;;11.88;100.00;101919.66;2571890;30;136914;-39
2021/08/31 03:52:39;;;;;;;42.13;21.50;;;13.40;99.90;;;12.08;100.00;101919.88;2569796;30;138449;-38
2021/08/31 03:55:07;;;;;;;44.13;22.60;;;13.40;99.90;;;12.22;100.00;101920.84;2571025;30;137729;-39
2021/08/31 03:57:34;;;;;;;48.03;23.95;;;13.50;99.90;;;12.32;100.00;101920.50;2570383;30;138344;-39
2021/08/31 04:00:04;;;;;;;53.38;24.33;;;13.70;99.90;;;12.35;100.00;101917.38;2569126;30;138139;-39
2021/08/31 04:02:32;;;;;;;62.88;28.27;;;13.70;99.90;;;12.47;100.00;101929.50;2567971;30;137106;-40
2021/08/31 04:05:00;;;;;;;65.78;28.38;;;13.80;99.90;;;12.57;100.00;101931.84;2569229;30;138238;-39
2021/08/31 04:07:27;;;;;;;65.15;27.38;;;13.90;99.90;;;12.57;100.00;101942.81;2569499;30;137245;-39
2021/08/31 04:09:55;;;;;;;72.10;29.83;;;13.90;99.90;;;12.64;100.00;101942.88;2568863;30;137839;-39
2021/08/31 04:12:23;;;;;;;78.55;31.73;;;14.00;99.90;;;12.68;100.00;101941.41;2568644;30;139048;-38
2021/08/31 04:14:50;;;;;;;;;;;14.00;99.90;;;12.69;100.00;101943.09;2568884;30;138457;-39
2021/08/31 04:17:18;;;;;;;75.85;29.92;;;14.10;99.90;;;12.70;100.00;101942.06;2571486;30;137404;-39
2021/08/31 04:19:45;;;;;;;74.22;28.80;;;14.10;99.90;;;12.70;100.00;101947.53;2568125;30;137396;-38
2021/08/31 04:22:13;;;;;;;72.55;29.65;;;14.10;99.90;;;12.74;100.00;101951.59;2566555;30;138274;-39
2021/08/31 04:24:40;;;;;;;76.13;29.83;;;14.10;99.90;;;12.74;100.00;101957.06;2569213;30;138363;-39
2021/08/31 04:27:08;;;;;;;71.15;29.23;;;14.10;99.90;;;12.72;100.00;101945.44;2569011;30;138335;-39
2021/08/31 04:29:35;;;;;;;71.22;29.55;;;14.10;99.90;;;12.76;100.00;101948.66;2567299;30;137794;-40
2021/08/31 04:32:03;;;;;;;74.93;30.17;;;14.20;99.90;;;12.75;100.00;101952.44;2569032;30;137251;-39
2021/08/31 04:34:30;;;;;;;;;;;14.20;99.90;;;12.77;100.00;101956.66;2567021;30;137778;-39
2021/08/31 04:36:58;;;;;;;66.45;28.85;;;14.20;99.90;;;12.77;100.00;101956.66;2569850;30;137410;-39
2021/08/31 04:39:25;;;;;;;71.07;29.80;;;14.20;99.90;;;12.79;100.00;101960.06;2569160;30;137064;-38
2021/08/31 04:41:53;;;;;;;75.47;30.92;;;14.20;99.90;;;12.76;100.00;101960.47;2568879;30;138487;-39
2021/08/31 04:44:22;;;;;;;74.05;30.23;;;14.20;99.90;;;12.82;100.00;101971.66;2567911;30;137558;-38
2021/08/31 04:46:50;;;;;;;73.88;30.70;;;14.20;99.90;;;12.91;100.00;101974.03;2567308;30;139192;-39
2021/08/31 04:49:17;;;;;;;72.32;29.77;;;14.30;99.90;;;12.90;100.00;101968.75;2569043;30;136857;-38
2021/08/31 04:51:45;;;;;;;78.03;31.88;;;14.30;99.90;;;12.94;100.00;101970.03;2568706;30;138545;-39
2021/08/31 04:54:12;;;;;;;70.85;29.08;;;14.30;99.90;;;12.92;100.00;101967.50;2566630;30;137506;-38
2021/08/31 04:56:40;;;;;;;78.97;33.00;;;14.30;99.90;;;13.00;100.00;101961.03;2568670;30;137721;-39
2021/08/31 04:59:07;;;;;;;74.68;29.70;;;14.40;99.90;;;12.98;100.00;101974.06;2569731;30;137893;-39
2021/08/31 05:01:35;;;;;;;72.60;31.20;;;14.40;99.90;;;13.00;100.00;101969.25;2570516;30;137387;-39
2021/08/31 05:04:03;;;;;;;68.03;30.00;;;14.40;99.90;;;13.01;100.00;101975.56;2570063;30;137497;-39
2021/08/31 05:06:31;;;;;;;;;;;14.40;99.90;;;13.07;100.00;101978.34;2569909;30;138431;-39
2021/08/31 05:08:59;;;;;;;83.00;31.52;;;14.40;99.90;;;13.09;100.00;101980.88;2568717;30;137179;-39
2021/08/31 05:11:26;;;;;;;72.85;29.67;;;14.40;99.90;;;13.08;100.00;101988.28;2569287;30;138203;-39
2021/08/31 05:13:54;;;;;;;68.40;29.08;;;14.50;99.90;;;13.12;100.00;101990.59;2568405;30;137702;-38
2021/08/31 05:16:22;;;;;;;70.00;28.58;;;14.50;99.90;;;13.13;100.00;101995.03;2570655;30;138422;-44
2021/08/31 05:18:49;;;;;;;79.40;32.35;;;14.50;99.90;;;13.19;100.00;101999.69;2566522;30;137760;-39
2021/08/31 05:21:17;;;;;;;71.40;29.23;;;14.50;99.90;;;13.17;100.00;101994.44;2569159;30;139197;-39
2021/08/31 05:23:45;;;;;;;67.18;28.33;;;14.50;99.90;;;13.19;100.00;101999.69;2569250;30;137835;-39
2021/08/31 05:26:12;;;;;;;82.30;32.47;;;14.60;99.90;;;13.23;100.00;101992.75;2568435;30;139228;-39
2021/08/31 05:28:39;;;;;;;78.13;30.48;;;14.60;99.90;;;13.24;100.00;101999.94;2568481;30;137738;-39
2021/08/31 05:31:07;;;;;;;75.45;31.38;;;14.60;99.90;;;13.29;100.00;101996.59;2567343;30;137784;-39
2021/08/31 05:33:35;;;;;;;75.22;30.48;;;14.60;99.90;;;13.31;100.00;102010.94;2568206;30;137826;-39
2021/08/31 05:36:02;;;;;;;71.85;30.75;;;14.70;99.90;;;13.23;100.00;102003.72;2567323;30;137901;-39
2021/08/31 05:38:30;;;;;;;;;;;14.70;99.90;;;13.28;100.00;102012.22;2568753;30;138404;-39
2021/08/31 05:40:57;;;;;;;65.93;29.05;;;14.70;99.90;;;13.31;100.00;102017.28;2569525;30;137993;-39
2021/08/31 05:43:26;;;;;;;63.45;28.80;;;14.70;99.90;;;13.33;100.00;102019.81;2569715;30;137399;-38
2021/08/31 05:45:54;;;;;;;63.67;28.02;;;14.70;99.90;;;13.34;100.00;102027.84;2568587;30;137877;-39
2021/08/31 05:48:22;;;;;;;66.32;30.00;;;14.70;99.90;;;13.35;100.00;102017.72;2568677;30;137712;-39
2021/08/31 05:50:49;;;;;;;60.08;27.83;;;14.70;99.90;;;13.40;100.00;102017.13;2568949;30;137794;-39
2021/08/31 05:53:17;;;;;;;62.65;28.98;;;14.70;99.90;;;13.40;100.00;102023.47;2569694;30;137078;-39
2021/08/31 05:55:44;;;;;;;56.92;27.13;;;14.80;99.90;;;13.43;100.00;102022.22;2568138;30;138536;-39
2021/08/31 05:58:12;;;;;;;61.22;28.17;;;14.70;99.90;;;13.51;100.00;102013.81;2568728;30;136801;-39
2021/08/31 06:00:39;;;;;;;61.60;28.58;;;14.80;99.90;;;13.45;100.00;102018.25;2567451;30;139130;-39
2021/08/31 06:03:07;;;;;;;58.05;28.67;;;14.80;99.90;;;13.42;100.00;102017.75;2571273;30;136978;-40
2021/08/31 06:05:37;;;;;;;57.00;28.48;;;14.80;99.90;;;13.44;100.00;102032.13;2565717;30;138067;-39
2021/08/31 06:08:05;;;;;;;53.67;26.00;;;14.80;99.90;;;13.47;100.00;102034.47;2569839;30;137065;-39
2021/08/31 06:10:33;;;;;;;53.72;26.95;;;14.80;99.90;;;13.54;100.00;102032.63;2568362;30;139022;-39
2021/08/31 06:13:00;;;;;;;62.35;28.73;;;14.80;99.90;;;13.56;100.00;102030.53;2569171;30;136868;-39
2021/08/31 06:15:28;;;;;;;66.38;31.33;;;14.90;99.90;;;13.54;100.00;102038.13;2568574;30;139076;-39
2021/08/31 06:17:56;;;;;;;61.35;28.42;;;14.90;99.90;;;13.53;100.00;102047.38;2568453;30;136802;-39
2021/08/31 06:20:23;;;;;;;58.25;29.08;;;14.90;99.90;;;13.54;100.00;102043.59;2569695;30;137523;-39
2021/08/31 06:22:51;;;;;;;54.65;28.13;;;14.90;99.90;;;13.59;100.00;102045.72;2569733;30;137683;-39
2021/08/31 06:25:19;;;;;;;57.65;28.98;;;14.90;99.90;;;13.63;100.00;102038.75;2570212;30;138668;-39
2021/08/31 06:27:46;;;;;;;57.75;28.25;;;14.90;99.90;;;13.65;100.00;102047.63;2570838;30;137572;-39
2021/08/31 06:30:14;;;;;;;60.35;28.83;;;15.00;99.90;;;13.63;100.00;102056.06;2569066;30;137171;-39
2021/08/31 06:32:45;;;;;;;61.83;30.58;;;15.00;99.90;;;13.71;100.00;102060.56;2575262;30;138196;-41
2021/08/31 06:35:13;;;;;;;59.08;29.67;;;15.00;99.90;;;13.71;100.00;102065.19;2565368;30;137969;-40
2021/08/31 06:37:40;;;;;;;61.25;30.27;;;15.00;99.90;;;13.72;100.00;102058.66;2568947;30;137688;-41
2021/08/31 06:40:09;;;;;;;61.58;29.35;;;15.00;99.90;;;13.75;100.00;102055.50;2568040;30;137903;-40
2021/08/31 06:42:37;;;;;;;61.60;30.85;;;15.00;99.90;;;13.71;100.00;102059.69;2569096;30;137001;-41
2021/08/31 06:45:06;;;;;;;65.38;31.55;;;15.00;99.90;;;13.73;100.00;102063.06;2568612;30;138719;-40
2021/08/31 06:47:33;;;;;;;61.00;30.58;;;15.00;99.90;;;13.75;100.00;102058.22;2567970;30;137572;-40
2021/08/31 06:50:01;;;;;;;58.97;29.38;;;15.00;99.90;;;13.76;100.00;102059.91;2566260;30;137743;-41
2021/08/31 06:52:28;;;;;;;59.92;30.42;;;15.10;99.90;;;13.85;100.00;102068.84;2567309;30;138489;-41
2021/08/31 06:54:56;;;;;;;55.78;29.85;;;15.10;99.90;;;13.90;100.00;102067.16;2567607;30;137628;-40
2021/08/31 06:57:24;;;;;;;59.53;29.83;;;15.20;99.90;;;13.97;100.00;102064.47;2567672;30;138425;-40
2021/08/31 06:59:51;;;;;;;56.75;29.75;;;15.20;99.90;;;13.99;100.00;102067.00;2568419;30;139290;-40
2021/08/31 07:02:19;;;;;;;58.17;29.17;;;15.20;99.90;;;14.03;100.00;102071.88;2568538;30;136850;-41
2021/08/31 07:04:47;;;;;;;60.35;30.38;;;15.30;99.90;;;14.05;100.00;102072.50;2567783;30;137175;-41
2021/08/31 07:07:14;;;;;;;68.82;33.72;;;15.30;99.90;;;14.14;100.00;102075.06;2567981;30;137794;-41
2021/08/31 07:09:42;;;;;;;60.15;30.13;;;15.40;99.90;;;14.17;100.00;102072.75;2567132;30;139443;-41
2021/08/31 07:12:11;;;;;;;57.85;29.70;;;15.40;99.90;;;14.09;99.89;102073.78;2568369;30;138448;-41
2021/08/31 07:14:39;;;;;;;53.10;27.65;;;15.40;99.90;;;14.14;100.00;102075.91;2565828;30;138144;-40
2021/08/31 07:17:07;;;;;;;54.50;28.15;;;15.40;99.90;;;14.19;99.87;102073.41;2568058;30;138438;-40
2021/08/31 07:19:34;;;;;;;50.65;26.58;;;15.40;99.90;;;14.24;100.00;102078.28;2566411;30;137860;-40
2021/08/31 07:22:02;;;;;;;47.33;25.10;;;15.50;99.90;;;14.29;100.00;102075.75;2568788;30;137679;-41
2021/08/31 07:24:30;;;;;;;;;;;15.50;99.90;;;14.37;100.00;102083.78;2568155;30;137346;-41
2021/08/31 07:26:57;;;;;;;47.40;24.85;;;15.60;99.90;;;14.43;100.00;102082.13;2569089;30;136948;-40
2021/08/31 07:29:25;;;;;;;49.25;26.08;;;15.60;99.90;;;14.52;99.74;102088.28;2567127;30;137276;-40
2021/08/31 07:31:53;;;;;;;44.00;24.80;;;15.70;99.90;;;14.48;97.85;102089.75;2568183;30;138277;-41
2021/08/31 07:34:20;;;;;;;;;;;15.70;99.90;;;14.47;97.73;102091.63;2567464;30;137158;-41
2021/08/31 07:36:48;;;;;;;45.00;25.70;;;15.70;99.90;;;14.44;96.83;102091.19;2565837;30;137205;-40
2021/08/31 07:39:16;;;;;;;43.78;24.98;;;15.70;99.90;;;14.42;97.20;102101.53;2568536;30;136697;-41
2021/08/31 07:41:43;;;;;;;42.45;22.85;;;15.70;99.90;;;14.39;96.65;102108.31;2568003;30;137415;-41
2021/08/31 07:44:11;;;;;;;39.58;22.95;;;15.70;99.90;;;14.29;95.90;102094.97;2568838;30;138336;-42
2021/08/31 07:46:45;;;;;;;35.70;21.35;;;15.60;99.90;;;14.31;96.09;102105.72;2567739;30;136896;-41
2021/08/31 07:49:14;;;;;;;32.97;19.80;;;15.60;99.90;;;14.27;96.14;102109.94;2566638;30;138503;-40
2021/08/31 07:51:44;;;;;;;37.03;19.75;;;15.60;99.90;;;14.27;95.96;102104.44;2568680;30;137437;-41
2021/08/31 07:54:12;;;;;;;32.50;17.70;;;15.50;99.90;;;14.13;95.75;102095.31;2567899;30;137070;-42
2021/08/31 07:56:41;;;;;;;32.83;18.50;;;15.50;99.90;;;14.33;96.99;102117.38;2567554;30;137576;-41
2021/08/31 07:59:09;;;;;;;30.38;16.65;;;15.60;99.90;;;14.39;97.54;102113.78;2568323;30;139186;-40
2021/08/31 08:01:36;;;;;;;29.40;16.40;;;15.60;99.90;;;14.47;98.29;102113.59;2568231;30;136815;-41
2021/08/31 08:04:04;;;;;;;;;;;15.70;99.90;;;14.55;98.26;102115.31;2567589;30;138398;-41
2021/08/31 08:06:32;;;;;;;26.05;14.77;;;15.80;99.90;;;14.60;97.14;102125.69;2567797;30;138071;-43
2021/08/31 08:09:00;;;;;;;23.98;13.80;;;15.80;99.90;;;14.61;95.53;102117.22;2568586;30;137299;-43
2021/08/31 08:11:27;;;;;;;25.38;14.15;;;15.80;99.90;;;14.71;96.73;102122.34;2568100;30;136773;-40
2021/08/31 08:13:55;;;;;;;23.90;14.55;;;15.90;99.90;;;14.75;96.43;102126.34;2567764;30;137780;-41
2021/08/31 08:16:23;;;;;;;25.08;14.63;;;16.00;99.90;;;14.81;96.60;102124.69;2568047;30;136792;-41
2021/08/31 08:18:51;;;;;;;22.40;13.35;;;16.00;99.90;;;14.76;94.61;102117.06;2568164;30;138428;-41
2021/08/31 08:21:19;;;;;;;25.38;14.43;;;16.00;99.90;;;14.77;95.26;102112.44;2567741;30;138777;-43
2021/08/31 08:23:47;;;;;;;23.00;13.90;;;16.00;99.90;;;14.84;94.73;102127.00;2566809;30;138436;-44
2021/08/31 08:26:15;;;;;;;23.50;14.00;;;16.10;99.90;;;14.90;94.53;102125.34;2567925;30;136919;-42
2021/08/31 08:28:42;;;;;;;22.45;13.23;;;16.10;99.90;;;15.00;95.69;102131.25;2566432;30;137475;-40
2021/08/31 08:31:10;;;;;;;24.70;12.07;;;16.20;99.90;;;15.06;95.93;102132.31;2568789;30;137100;-41
2021/08/31 08:33:38;;;;;;;;;;;16.20;99.90;;;15.13;96.26;102135.06;2567375;30;138512;-40
2021/08/31 08:36:07;;;;;;;20.70;12.02;;;16.30;99.90;;;15.16;96.32;102132.72;2567561;30;138037;-41
2021/08/31 08:38:35;;;;;;;24.00;13.88;;;16.30;99.90;;;15.22;94.66;102136.53;2565842;30;137599;-41
2021/08/31 08:41:05;;;;;;;;;;;16.40;99.90;;;15.31;94.91;102134.44;2568995;30;137088;-40
2021/08/31 08:43:35;;;;;;;26.33;14.75;;;16.50;99.90;;;15.29;94.56;102140.13;2567100;30;136855;-41
2021/08/31 08:46:07;;;;;;;25.55;14.88;;;16.50;99.90;;;15.30;94.75;102133.56;2567912;30;137018;-41
2021/08/31 08:48:35;;;;;;;29.10;17.33;;;16.50;99.90;;;15.29;93.56;102134.63;2567453;30;138132;-41
2021/08/31 08:51:05;;;;;;;26.60;15.75;;;16.50;99.90;;;15.30;93.60;102139.06;2566664;30;136950;-41
2021/08/31 08:53:34;;;;;;;25.15;14.65;;;16.50;99.90;;;15.32;93.63;102136.94;2567581;30;137524;-41
2021/08/31 08:56:03;;;;;;;22.38;13.23;;;16.50;99.90;;;15.37;94.05;102133.56;2568372;30;137118;-41
2021/08/31 08:58:30;;;;;;;25.88;13.05;;;16.50;99.90;;;15.38;92.13;102136.13;2568027;30;138405;-41
2021/08/31 09:01:07;;;;;;;;;;;16.60;99.90;;;15.47;92.55;102133.16;2568342;30;137781;-44
2021/08/31 09:03:40;;;;;;;19.63;11.32;;;16.60;99.90;;;15.59;93.12;102141.59;2567275;30;138539;-40
2021/08/31 09:06:11;;;;;;;20.40;10.68;;;16.70;99.90;;;15.71;93.33;102133.53;2568246;30;137708;-41
2021/08/31 09:09:01;;;;;;;20.02;10.88;;;16.80;99.90;;;15.87;93.82;102133.03;2565441;30;137773;-40
2021/08/31 09:11:39;;;;;;;17.35;9.98;;;16.90;99.90;;;16.02;93.14;102140.25;2568267;30;138521;-44
2021/08/31 09:14:33;;;;;;;17.20;9.20;;;17.00;99.90;;;16.15;92.39;102133.84;2567474;30;138982;-41
2021/08/31 09:17:09;;;;;;;14.40;8.75;;;17.20;99.90;;;16.29;91.70;102129.13;2567668;30;136899;-41
2021/08/31 09:19:41;;;;;;;15.43;8.10;;;17.30;99.90;;;16.39;91.89;102130.34;2568161;30;137392;-41
2021/08/31 09:22:24;;;;;;;15.70;8.75;;;17.40;99.90;;;16.54;90.79;102130.03;2567313;30;138384;-41
2021/08/31 09:25:09;;;;;;;13.60;7.60;;;17.50;99.90;;;16.59;85.87;102128.53;2567289;30;138285;-41
2021/08/31 09:27:50;;;;;;;17.10;8.23;;;17.60;99.90;;;16.84;89.69;102128.56;2567925;30;136766;-41
2021/08/31 09:30:25;;;;;;;12.75;8.02;;;17.70;99.90;;;16.98;88.07;102118.34;2566690;30;138009;-41
2021/08/31 09:33:09;;;;;;;15.32;7.93;;;18.00;99.90;;;17.13;83.83;102128.16;2567876;30;137911;-41
2021/08/31 09:35:47;;;;;;;17.35;9.00;;;18.10;99.90;;;17.46;83.75;102127.88;2567932;30;139132;-42
2021/08/31 09:38:18;;;;;;;15.85;8.43;;;18.30;99.90;;;17.94;85.04;102130.97;2566523;30;137458;-41
2021/08/31 09:40:53;;;;;;;16.52;9.32;;;18.60;99.90;;;18.11;80.10;102128.47;2565965;30;138557;-41
2021/08/31 09:43:22;;;;;;;14.25;8.00;;;18.90;99.90;;;18.40;82.50;102126.78;2568065;30;136707;-41
2021/08/31 09:45:55;;;;;;;15.52;8.63;;;19.20;99.90;;;18.50;79.80;102136.44;2567694;30;137028;-41
2021/08/31 09:48:23;;;;;;;16.67;8.55;;;19.30;99.90;;;18.57;79.34;102130.84;2567697;30;136962;-41
2021/08/31 09:50:58;;;;;;;15.23;7.97;;;19.40;99.90;;;18.54;78.69;102127.44;2568833;30;138411;-42
2021/08/31 09:53:29;;;;;;;16.23;8.20;;;19.40;99.90;;;18.67;77.73;102131.09;2566425;30;137525;-41
2021/08/31 09:56:02;;;;;;;15.00;8.00;;;19.50;99.90;;;18.65;78.63;102134.09;2569247;30;140364;-43
2021/08/31 09:58:33;;;;;;;17.65;8.52;;;19.60;99.90;;;18.61;76.47;102126.53;2569808;30;136894;-41
2021/08/31 10:01:02;;;;;;;16.20;7.85;;;19.50;99.90;;;18.61;72.52;102132.88;2570105;30;138060;-44
2021/08/31 10:03:30;;;;;;;14.20;7.90;;;19.60;99.90;;;18.88;75.73;102131.66;2568241;30;137707;-41
2021/08/31 10:06:01;;;;;;;15.35;7.60;;;19.70;99.90;;;18.81;71.61;102128.97;2567088;30;138556;-41
2021/08/31 10:08:33;;;;;;;15.50;7.85;;;19.70;99.90;;;19.11;74.20;102120.66;2569471;30;136914;-41
2021/08/31 10:11:03;;;;;;;12.65;6.88;;;19.90;99.90;;;19.18;71.69;102122.47;2568769;30;138995;-41
2021/08/31 10:13:36;;;;;;;14.50;6.95;;;20.00;99.90;;;19.22;73.84;102115.38;2568800;30;137487;-41
2021/08/31 10:16:06;;;;;;;12.10;7.50;;;20.20;99.90;;;19.43;73.78;102116.69;2568491;30;137686;-43
2021/08/31 10:18:34;;;;;;;14.55;7.28;;;20.30;99.90;;;19.64;73.11;102118.00;2567717;30;138315;-42
2021/08/31 10:21:14;;;;;;;10.77;6.57;;;20.40;99.90;;;19.73;76.18;102125.94;2567496;30;138101;-41
2021/08/31 10:23:48;;;;;;;11.45;6.43;;;20.50;99.90;;;19.58;71.29;102127.25;2566530;30;137265;-41
2021/08/31 10:26:34;;;;;;;12.23;6.78;;;20.50;99.90;;;19.47;71.64;102128.94;2565517;30;138995;-41
2021/08/31 10:29:14;;;;;;;14.00;6.45;;;20.50;99.90;;;19.66;68.21;102126.06;2567392;30;136773;-41
2021/08/31 10:31:47;;;;;;;12.95;7.50;;;20.50;99.90;;;19.75;69.79;102124.59;2567744;30;138376;-43
2021/08/31 10:34:30;;;;;;;11.10;7.18;;;20.60;99.90;;;19.70;66.24;102121.72;2569365;30;137137;-45